createdAt,value
2023-08-03T00:00:06.187Z,952.80
2023-08-03T00:01:06.224Z,952.73
2023-08-03T00:02:06.212Z,952.83
2023-08-03T00:03:06.298Z,952.88
2023-08-03T00:04:06.351Z,952.88
2023-08-03T00:05:06.133Z,952.89
2023-08-03T00:06:06.131Z,952.89
2023-08-03T00:07:06.104Z,953.03
2023-08-03T00:08:06.100Z,952.95
2023-08-03T00:09:06.086Z,952.86
2023-08-03T00:10:06.074Z,952.82
2023-08-03T00:11:06.069Z,952.91
2023-08-03T00:12:06.048Z,952.89
2023-08-03T00:13:06.057Z,952.84
2023-08-03T00:14:06.022Z,952.91
2023-08-03T00:15:06.041Z,952.81
2023-08-03T00:16:06.051Z,952.81
2023-08-03T00:17:05.987Z,952.87
2023-08-03T00:18:05.994Z,952.82
2023-08-03T00:19:05.979Z,952.84
2023-08-03T00:20:05.967Z,952.58
2023-08-03T00:21:05.942Z,952.75
2023-08-03T00:22:05.928Z,952.84
2023-08-03T00:23:05.930Z,952.82
2023-08-03T00:24:05.992Z,952.77
2023-08-03T00:25:05.910Z,952.70
2023-08-03T00:26:05.918Z,952.72
2023-08-03T00:27:05.888Z,952.68
2023-08-03T00:28:05.870Z,952.85
2023-08-03T00:29:05.920Z,952.81
2023-08-03T00:30:05.860Z,952.74
2023-08-03T00:31:05.869Z,952.71
2023-08-03T00:32:05.834Z,952.76
2023-08-03T00:33:05.871Z,952.95
2023-08-03T00:34:05.804Z,952.97
2023-08-03T00:35:05.838Z,953.05
2023-08-03T00:36:05.797Z,952.84
2023-08-03T00:37:05.767Z,952.93
2023-08-03T00:38:05.782Z,952.94
2023-08-03T00:39:05.753Z,953.01
2023-08-03T00:40:05.734Z,953.07
2023-08-03T00:41:05.725Z,952.99
2023-08-03T00:42:05.718Z,953.17
2023-08-03T00:43:05.708Z,953.00
2023-08-03T00:44:05.698Z,953.10
2023-08-03T00:45:05.754Z,953.25
2023-08-03T00:46:05.680Z,952.93
2023-08-03T00:47:05.675Z,953.03
2023-08-03T00:48:05.706Z,953.01
2023-08-03T00:49:05.674Z,952.97
2023-08-03T00:50:05.627Z,952.98
2023-08-03T00:51:05.671Z,953.11
2023-08-03T00:52:05.632Z,952.90
2023-08-03T00:53:05.624Z,953.02
2023-08-03T00:54:05.604Z,953.14
2023-08-03T00:55:05.565Z,953.01
2023-08-03T00:56:05.592Z,952.90
2023-08-03T00:57:05.566Z,953.06
2023-08-03T00:58:05.540Z,953.01
2023-08-03T00:59:05.522Z,953.04
2023-08-03T01:00:05.506Z,953.10
2023-08-03T01:01:05.554Z,953.11
2023-08-03T01:02:05.577Z,952.97
2023-08-03T01:03:05.559Z,952.87
2023-08-03T01:04:05.481Z,953.11
2023-08-03T01:05:05.470Z,953.01
2023-08-03T01:06:05.486Z,953.09
2023-08-03T01:07:05.461Z,953.13
2023-08-03T01:08:05.435Z,953.01
2023-08-03T01:09:05.457Z,953.01
2023-08-03T01:10:05.406Z,953.03
2023-08-03T01:11:05.403Z,953.08
2023-08-03T01:12:05.391Z,953.00
2023-08-03T01:13:05.397Z,953.03
2023-08-03T01:14:05.352Z,953.06
2023-08-03T01:15:05.360Z,952.99
2023-08-03T01:16:05.344Z,953.11
2023-08-03T01:17:05.344Z,953.07
2023-08-03T01:18:05.356Z,953.10
2023-08-03T01:19:05.304Z,953.12
2023-08-03T01:20:05.290Z,953.11
2023-08-03T01:21:05.301Z,953.12
2023-08-03T01:22:05.280Z,953.06
2023-08-03T01:23:05.286Z,953.04
2023-08-03T01:24:05.302Z,953.09
2023-08-03T01:25:05.245Z,953.12
2023-08-03T01:26:05.239Z,953.09
2023-08-03T01:27:05.254Z,953.09
2023-08-03T01:28:05.220Z,953.02
2023-08-03T01:29:05.232Z,953.06
2023-08-03T01:30:05.221Z,953.10
2023-08-03T01:31:05.251Z,952.95
2023-08-03T01:32:05.185Z,953.00
2023-08-03T01:33:05.255Z,953.07
2023-08-03T01:34:05.171Z,953.07
2023-08-03T01:35:05.130Z,952.93
2023-08-03T01:36:05.137Z,952.92
2023-08-03T01:37:05.123Z,952.99
2023-08-03T01:38:05.112Z,952.95
2023-08-03T01:39:05.146Z,952.96
2023-08-03T01:40:05.079Z,953.09
2023-08-03T01:41:05.089Z,953.20
2023-08-03T01:42:05.063Z,953.01
2023-08-03T01:43:05.100Z,953.10
2023-08-03T01:44:05.070Z,953.19
2023-08-03T01:45:05.041Z,953.08
2023-08-03T01:46:05.056Z,953.07
2023-08-03T01:47:05.031Z,953.13
2023-08-03T01:48:05.085Z,952.89
2023-08-03T01:49:04.998Z,953.16
2023-08-03T01:50:04.990Z,953.14
2023-08-03T01:51:04.991Z,953.04
2023-08-03T01:52:04.970Z,953.37
2023-08-03T01:53:04.961Z,953.07
2023-08-03T01:54:04.933Z,953.31
2023-08-03T01:55:04.935Z,953.23
2023-08-03T01:56:04.907Z,953.28
2023-08-03T01:57:04.960Z,953.28
2023-08-03T01:58:04.896Z,953.08
2023-08-03T01:59:04.874Z,953.37
2023-08-03T02:00:04.860Z,953.21
2023-08-03T02:01:04.843Z,953.18
2023-08-03T02:02:04.914Z,953.24
2023-08-03T02:03:04.921Z,953.38
2023-08-03T02:04:04.871Z,953.51
2023-08-03T02:05:04.817Z,953.19
2023-08-03T02:06:04.880Z,953.28
2023-08-03T02:07:04.823Z,953.42
2023-08-03T02:08:04.785Z,953.41
2023-08-03T02:09:04.769Z,953.47
2023-08-03T02:10:04.777Z,953.41
2023-08-03T02:11:04.748Z,953.43
2023-08-03T02:12:04.740Z,953.49
2023-08-03T02:13:04.713Z,953.38
2023-08-03T02:14:04.739Z,953.37
2023-08-03T02:15:04.716Z,953.45
2023-08-03T02:16:18.798Z,953.30
2023-08-03T02:17:04.686Z,953.40
2023-08-03T02:18:04.709Z,953.28
2023-08-03T02:19:04.671Z,953.32
2023-08-03T02:20:04.659Z,953.22
2023-08-03T02:21:04.632Z,953.39
2023-08-03T02:22:04.636Z,953.28
2023-08-03T02:23:04.625Z,953.23
2023-08-03T02:24:04.610Z,953.60
2023-08-03T02:25:04.618Z,953.35
2023-08-03T02:26:04.568Z,953.43
2023-08-03T02:27:04.582Z,953.50
2023-08-03T02:28:04.580Z,953.34
2023-08-03T02:29:04.556Z,953.32
2023-08-03T02:30:04.548Z,953.52
2023-08-03T02:31:04.570Z,953.51
2023-08-03T02:32:04.524Z,953.27
2023-08-03T02:33:04.610Z,953.28
2023-08-03T02:34:04.505Z,953.36
2023-08-03T02:35:04.620Z,953.40
2023-08-03T02:36:04.493Z,953.30
2023-08-03T02:37:04.468Z,953.50
2023-08-03T02:38:04.461Z,953.45
2023-08-03T02:39:04.450Z,953.38
2023-08-03T02:40:04.432Z,953.46
2023-08-03T02:41:04.428Z,953.41
2023-08-03T02:42:04.411Z,953.56
2023-08-03T02:43:04.398Z,953.48
2023-08-03T02:44:04.432Z,953.65
2023-08-03T02:45:04.456Z,953.48
2023-08-03T02:46:04.422Z,953.49
2023-08-03T02:47:04.371Z,953.65
2023-08-03T02:48:04.374Z,953.46
2023-08-03T02:49:04.352Z,953.56
2023-08-03T02:50:04.362Z,953.52
2023-08-03T02:51:04.298Z,953.56
2023-08-03T02:52:04.334Z,953.61
2023-08-03T02:53:04.278Z,953.56
2023-08-03T02:54:04.301Z,953.52
2023-08-03T02:55:04.264Z,953.64
2023-08-03T02:56:04.287Z,953.73
2023-08-03T02:57:04.243Z,953.82
2023-08-03T02:58:04.246Z,953.50
2023-08-03T02:59:04.247Z,953.73
2023-08-03T03:00:04.208Z,953.67
2023-08-03T03:01:04.254Z,953.72
2023-08-03T03:02:04.189Z,953.68
2023-08-03T03:03:04.281Z,953.57
2023-08-03T03:04:04.162Z,953.87
2023-08-03T03:05:04.151Z,953.75
2023-08-03T03:06:04.211Z,953.82
2023-08-03T03:07:04.119Z,953.77
2023-08-03T03:08:04.128Z,953.66
2023-08-03T03:09:04.123Z,953.82
2023-08-03T03:10:04.095Z,953.79
2023-08-03T03:11:04.084Z,953.89
2023-08-03T03:12:04.126Z,953.91
2023-08-03T03:13:04.063Z,953.90
2023-08-03T03:14:04.059Z,953.86
2023-08-03T03:15:04.055Z,953.70
2023-08-03T03:16:04.147Z,953.99
2023-08-03T03:17:04.021Z,953.88
2023-08-03T03:18:04.020Z,953.85
2023-08-03T03:19:04.003Z,954.00
2023-08-03T03:20:04.014Z,953.97
2023-08-03T03:21:03.981Z,953.94
2023-08-03T03:22:03.976Z,953.94
2023-08-03T03:23:03.940Z,953.93
2023-08-03T03:24:03.933Z,954.06
2023-08-03T03:25:03.944Z,953.95
2023-08-03T03:26:03.935Z,954.24
2023-08-03T03:27:03.891Z,954.15
2023-08-03T03:28:03.908Z,954.15
2023-08-03T03:29:03.899Z,954.16
2023-08-03T03:30:03.893Z,954.08
2023-08-03T03:31:03.867Z,954.17
2023-08-03T03:32:04.644Z,954.21
2023-08-03T03:33:03.917Z,954.28
2023-08-03T03:34:03.848Z,954.26
2023-08-03T03:35:03.883Z,954.20
2023-08-03T03:36:03.832Z,954.18
2023-08-03T03:37:03.794Z,954.18
2023-08-03T03:38:03.800Z,954.10
2023-08-03T03:39:03.821Z,954.13
2023-08-03T03:40:03.773Z,954.21
2023-08-03T03:41:03.756Z,954.21
2023-08-03T03:42:03.741Z,954.26
2023-08-03T03:43:03.723Z,954.23
2023-08-03T03:44:03.709Z,954.27
2023-08-03T03:45:03.717Z,954.26
2023-08-03T03:46:03.714Z,954.23
2023-08-03T03:47:03.686Z,954.32
2023-08-03T03:48:03.764Z,954.23
2023-08-03T03:49:03.666Z,954.35
2023-08-03T03:50:03.706Z,954.36
2023-08-03T03:51:03.683Z,954.40
2023-08-03T03:52:03.659Z,954.42
2023-08-03T03:53:03.650Z,954.38
2023-08-03T03:54:03.662Z,954.36
2023-08-03T03:55:03.661Z,954.38
2023-08-03T03:56:03.606Z,954.46
2023-08-03T03:57:03.650Z,954.47
2023-08-03T03:58:03.570Z,954.23
2023-08-03T03:59:03.569Z,954.66
2023-08-03T04:00:03.580Z,954.46
2023-08-03T04:01:03.579Z,954.64
2023-08-03T04:02:03.541Z,954.63
2023-08-03T04:03:03.567Z,954.63
2023-08-03T04:04:03.508Z,954.49
2023-08-03T04:05:03.502Z,954.59
2023-08-03T04:06:03.526Z,954.52
2023-08-03T04:07:03.471Z,954.70
2023-08-03T04:08:03.480Z,954.66
2023-08-03T04:09:03.471Z,954.49
2023-08-03T04:10:03.421Z,954.58
2023-08-03T04:11:03.420Z,954.55
2023-08-03T04:12:03.464Z,954.46
2023-08-03T04:13:03.389Z,954.44
2023-08-03T04:14:03.379Z,954.53
2023-08-03T04:15:03.410Z,954.36
2023-08-03T04:16:03.429Z,954.52
2023-08-03T04:17:03.349Z,954.58
2023-08-03T04:18:03.419Z,954.55
2023-08-03T04:19:03.325Z,954.37
2023-08-03T04:20:03.324Z,954.34
2023-08-03T04:21:03.307Z,954.43
2023-08-03T04:22:03.298Z,954.49
2023-08-03T04:23:03.287Z,954.52
2023-08-03T04:24:03.274Z,954.40
2023-08-03T04:25:03.250Z,954.24
2023-08-03T04:26:03.248Z,954.25
2023-08-03T04:27:03.230Z,954.33
2023-08-03T04:28:03.233Z,954.40
2023-08-03T04:29:03.203Z,954.35
2023-08-03T04:30:03.203Z,954.38
2023-08-03T04:31:03.260Z,954.34
2023-08-03T04:32:03.194Z,954.41
2023-08-03T04:33:03.165Z,954.52
2023-08-03T04:34:03.173Z,954.44
2023-08-03T04:35:03.164Z,954.23
2023-08-03T04:36:03.129Z,954.40
2023-08-03T04:37:03.100Z,954.54
2023-08-03T04:38:03.096Z,954.46
2023-08-03T04:39:03.104Z,954.53
2023-08-03T04:40:03.084Z,954.48
2023-08-03T04:41:03.112Z,954.50
2023-08-03T04:42:03.070Z,954.31
2023-08-03T04:43:03.060Z,954.42
2023-08-03T04:44:03.051Z,954.27
2023-08-03T04:45:03.031Z,954.37
2023-08-03T04:46:03.038Z,954.47
2023-08-03T04:47:03.011Z,954.48
2023-08-03T04:48:03.011Z,954.21
2023-08-03T04:49:02.986Z,954.33
2023-08-03T04:50:02.982Z,954.33
2023-08-03T04:51:02.948Z,954.33
2023-08-03T04:52:02.976Z,954.36
2023-08-03T04:53:02.924Z,954.19
2023-08-03T04:54:02.924Z,954.32
2023-08-03T04:55:02.906Z,954.25
2023-08-03T04:56:02.909Z,954.26
2023-08-03T04:57:02.898Z,954.34
2023-08-03T04:58:02.896Z,954.01
2023-08-03T04:59:02.853Z,954.36
2023-08-03T05:00:02.853Z,954.10
2023-08-03T05:01:02.870Z,954.25
2023-08-03T05:02:02.867Z,954.33
2023-08-03T05:03:02.874Z,954.34
2023-08-03T05:04:02.862Z,954.44
2023-08-03T05:05:02.789Z,954.24
2023-08-03T05:06:04.983Z,954.10
2023-08-03T05:07:02.805Z,954.37
2023-08-03T05:08:02.798Z,954.30
2023-08-03T05:09:02.763Z,954.37
2023-08-03T05:10:02.772Z,954.42
2023-08-03T05:11:02.755Z,954.33
2023-08-03T05:12:02.752Z,954.46
2023-08-03T05:13:02.762Z,954.22
2023-08-03T05:14:02.719Z,954.39
2023-08-03T05:15:02.727Z,954.41
2023-08-03T05:16:02.682Z,954.53
2023-08-03T05:17:02.793Z,954.58
2023-08-03T05:18:02.708Z,954.48
2023-08-03T05:19:02.661Z,954.59
2023-08-03T05:20:02.872Z,954.58
2023-08-03T05:21:02.633Z,954.64
2023-08-03T05:22:02.614Z,954.48
2023-08-03T05:23:02.619Z,954.57
2023-08-03T05:24:02.597Z,954.71
2023-08-03T05:25:02.578Z,954.72
2023-08-03T05:26:02.580Z,954.53
2023-08-03T05:27:04.341Z,954.72
2023-08-03T05:28:02.556Z,954.82
2023-08-03T05:29:02.542Z,954.64
2023-08-03T05:30:02.541Z,954.74
2023-08-03T05:31:02.622Z,954.94
2023-08-03T05:32:02.509Z,954.73
2023-08-03T05:33:02.529Z,954.64
2023-08-03T05:34:02.481Z,954.66
2023-08-03T05:35:02.524Z,954.80
2023-08-03T05:36:02.470Z,954.73
2023-08-03T05:37:02.430Z,954.86
2023-08-03T05:38:02.436Z,954.79
2023-08-03T05:39:02.427Z,954.62
2023-08-03T05:40:02.402Z,954.91
2023-08-03T05:41:02.398Z,954.96
2023-08-03T05:42:02.408Z,954.72
2023-08-03T05:43:02.367Z,954.64
2023-08-03T05:44:02.379Z,954.69
2023-08-03T05:45:02.390Z,954.92
2023-08-03T05:46:02.429Z,954.88
2023-08-03T05:47:02.352Z,954.86
2023-08-03T05:48:02.375Z,955.00
2023-08-03T05:49:02.306Z,954.94
2023-08-03T05:50:02.295Z,954.85
2023-08-03T05:51:02.332Z,954.99
2023-08-03T05:52:02.282Z,954.97
2023-08-03T05:53:02.271Z,955.15
2023-08-03T05:54:02.255Z,954.93
2023-08-03T05:55:02.245Z,954.98
2023-08-03T05:56:11.900Z,954.97
2023-08-03T05:57:02.212Z,955.08
2023-08-03T05:58:02.201Z,954.98
2023-08-03T05:59:02.205Z,955.43
2023-08-03T06:00:02.195Z,955.16
2023-08-03T06:01:02.185Z,955.27
2023-08-03T06:02:02.179Z,955.04
2023-08-03T06:03:04.957Z,955.08
2023-08-03T06:04:02.203Z,954.98
2023-08-03T06:05:02.137Z,955.01
2023-08-03T06:06:02.242Z,955.00
2023-08-03T06:07:02.179Z,955.10
2023-08-03T06:08:02.115Z,955.08
2023-08-03T06:09:02.139Z,955.14
2023-08-03T06:10:02.060Z,954.97
2023-08-03T06:11:02.086Z,954.97
2023-08-03T06:12:02.051Z,955.15
2023-08-03T06:13:02.075Z,955.24
2023-08-03T06:14:02.054Z,955.26
2023-08-03T06:15:02.028Z,954.92
2023-08-03T06:16:02.010Z,955.02
2023-08-03T06:17:02.017Z,955.04
2023-08-03T06:18:02.021Z,954.94
2023-08-03T06:19:01.972Z,954.91
2023-08-03T06:20:01.962Z,955.10
2023-08-03T06:21:01.963Z,955.03
2023-08-03T06:22:01.920Z,955.12
2023-08-03T06:23:01.926Z,954.97
2023-08-03T06:24:01.937Z,955.07
2023-08-03T06:25:01.920Z,955.04
2023-08-03T06:26:01.973Z,954.72
2023-08-03T06:27:01.916Z,955.00
2023-08-03T06:28:01.860Z,954.87
2023-08-03T06:29:01.970Z,954.74
2023-08-03T06:30:01.868Z,954.87
2023-08-03T06:31:01.858Z,954.90
2023-08-03T06:32:01.865Z,955.02
2023-08-03T06:33:01.872Z,954.98
2023-08-03T06:34:01.800Z,954.90
2023-08-03T06:35:01.797Z,954.92
2023-08-03T06:36:01.788Z,954.82
2023-08-03T06:37:01.785Z,954.92
2023-08-03T06:38:01.762Z,954.67
2023-08-03T06:39:01.753Z,954.79
2023-08-03T06:40:01.752Z,954.86
2023-08-03T06:41:01.726Z,954.81
2023-08-03T06:42:01.717Z,954.82
2023-08-03T06:43:01.703Z,954.76
2023-08-03T06:44:01.711Z,954.69
2023-08-03T06:45:01.693Z,954.80
2023-08-03T06:46:01.710Z,954.69
2023-08-03T06:47:01.668Z,954.89
2023-08-03T06:48:01.663Z,954.77
2023-08-03T06:49:01.647Z,954.89
2023-08-03T06:50:01.650Z,955.00
2023-08-03T06:51:01.717Z,954.91
2023-08-03T06:52:01.635Z,954.90
2023-08-03T06:53:01.586Z,954.83
2023-08-03T06:54:01.595Z,954.96
2023-08-03T06:55:01.586Z,955.02
2023-08-03T06:56:01.569Z,954.91
2023-08-03T06:57:01.558Z,954.90
2023-08-03T06:58:01.556Z,954.86
2023-08-03T06:59:01.613Z,954.71
2023-08-03T07:00:01.515Z,954.90
2023-08-03T07:01:01.530Z,954.82
2023-08-03T07:02:01.589Z,954.97
2023-08-03T07:03:01.590Z,954.92
2023-08-03T07:04:01.544Z,954.85
2023-08-03T07:05:01.482Z,954.91
2023-08-03T07:06:01.440Z,955.03
2023-08-03T07:07:01.457Z,954.85
2023-08-03T07:08:01.413Z,954.83
2023-08-03T07:09:01.423Z,955.05
2023-08-03T07:10:01.394Z,954.84
2023-08-03T07:11:01.380Z,954.99
2023-08-03T07:12:01.402Z,955.05
2023-08-03T07:13:01.378Z,954.86
2023-08-03T07:14:01.365Z,955.08
2023-08-03T07:15:01.339Z,955.02
2023-08-03T07:16:01.446Z,955.01
2023-08-03T07:17:01.342Z,954.93
2023-08-03T07:18:01.404Z,954.94
2023-08-03T07:19:01.339Z,954.95
2023-08-03T07:20:01.285Z,955.25
2023-08-03T07:21:01.283Z,955.08
2023-08-03T07:22:01.297Z,955.18
2023-08-03T07:23:01.250Z,955.06
2023-08-03T07:24:01.249Z,955.19
2023-08-03T07:25:01.239Z,955.42
2023-08-03T07:26:01.242Z,954.98
2023-08-03T07:27:01.199Z,955.23
2023-08-03T07:28:01.217Z,955.31
2023-08-03T07:29:01.197Z,955.36
2023-08-03T07:30:01.173Z,955.26
2023-08-03T07:31:01.181Z,955.30
2023-08-03T07:32:01.202Z,955.36
2023-08-03T07:33:01.259Z,955.26
2023-08-03T07:34:01.139Z,955.17
2023-08-03T07:35:01.129Z,955.25
2023-08-03T07:36:01.148Z,955.05
2023-08-03T07:37:01.118Z,954.94
2023-08-03T07:38:01.103Z,955.08
2023-08-03T07:39:01.102Z,955.20
2023-08-03T07:40:01.096Z,955.45
2023-08-03T07:41:01.104Z,955.29
2023-08-03T07:42:01.054Z,955.22
2023-08-03T07:43:01.050Z,955.03
2023-08-03T07:44:01.021Z,955.21
2023-08-03T07:45:01.021Z,955.14
2023-08-03T07:46:01.019Z,955.10
2023-08-03T07:47:00.987Z,955.45
2023-08-03T07:48:01.141Z,955.40
2023-08-03T07:49:01.015Z,955.16
2023-08-03T07:50:00.960Z,955.23
2023-08-03T07:51:01.016Z,955.30
2023-08-03T07:52:01.027Z,955.07
2023-08-03T07:53:00.939Z,955.31
2023-08-03T07:54:00.915Z,955.09
2023-08-03T07:55:00.916Z,955.24
2023-08-03T07:56:00.914Z,955.16
2023-08-03T07:57:00.899Z,955.42
2023-08-03T07:58:00.892Z,955.29
2023-08-03T07:59:00.890Z,955.32
2023-08-03T08:00:00.864Z,955.13
2023-08-03T08:01:00.886Z,955.11
2023-08-03T08:02:00.886Z,955.16
2023-08-03T08:03:00.883Z,955.31
2023-08-03T08:04:00.840Z,955.37
2023-08-03T08:05:00.904Z,955.17
2023-08-03T08:06:00.783Z,955.14
2023-08-03T08:07:00.778Z,955.36
2023-08-03T08:08:00.799Z,955.19
2023-08-03T08:09:00.819Z,955.23
2023-08-03T08:10:00.771Z,955.20
2023-08-03T08:11:11.769Z,955.35
2023-08-03T08:12:00.745Z,955.02
2023-08-03T08:13:00.717Z,955.15
2023-08-03T08:14:00.697Z,954.93
2023-08-03T08:15:00.704Z,955.00
2023-08-03T08:16:00.775Z,955.06
2023-08-03T08:17:12.679Z,955.07
2023-08-03T08:18:00.775Z,954.96
2023-08-03T08:19:00.725Z,955.09
2023-08-03T08:20:00.730Z,955.06
2023-08-03T08:21:00.617Z,955.16
2023-08-03T08:22:13.488Z,955.08
2023-08-03T08:23:00.707Z,955.36
2023-08-03T08:24:00.622Z,955.25
2023-08-03T08:25:00.769Z,955.23
2023-08-03T08:26:00.678Z,955.31
2023-08-03T08:27:00.624Z,955.25
2023-08-03T08:28:00.584Z,955.32
2023-08-03T08:29:05.195Z,955.39
2023-08-03T08:30:00.531Z,955.50
2023-08-03T08:31:00.553Z,955.27
2023-08-03T08:32:00.739Z,955.37
2023-08-03T08:33:00.561Z,955.27
2023-08-03T08:34:00.581Z,955.56
2023-08-03T08:35:00.507Z,955.33
2023-08-03T08:36:00.457Z,955.40
2023-08-03T08:37:00.444Z,955.36
2023-08-03T08:38:00.445Z,955.46
2023-08-03T08:39:00.424Z,955.39
2023-08-03T08:40:03.334Z,955.39
2023-08-03T08:41:00.416Z,955.55
2023-08-03T08:42:00.398Z,955.85
2023-08-03T08:43:00.499Z,955.55
2023-08-03T08:44:00.389Z,955.49
2023-08-03T08:45:00.376Z,955.67
2023-08-03T08:46:00.361Z,955.48
2023-08-03T08:47:00.441Z,955.55
2023-08-03T08:49:00.457Z,955.41
2023-08-03T08:52:00.430Z,955.41
2023-08-03T09:00:00.213Z,955.32
2023-08-03T09:01:00.248Z,955.44
2023-08-03T09:02:00.191Z,955.60
2023-08-03T09:03:00.278Z,955.34
2023-08-03T09:05:00.355Z,955.49
2023-08-03T09:07:00.309Z,955.37
2023-08-03T09:08:00.134Z,955.47
2023-08-03T09:09:00.132Z,955.63
2023-08-03T09:10:00.153Z,955.09
2023-08-03T09:11:00.149Z,955.34
2023-08-03T09:12:00.346Z,955.60
2023-08-03T09:13:00.081Z,955.24
2023-08-03T09:14:00.094Z,955.35
2023-08-03T09:15:00.118Z,955.46
2023-08-03T09:16:00.069Z,955.57
2023-08-03T09:17:00.142Z,955.73
2023-08-03T09:18:00.100Z,955.57
2023-08-03T09:19:00.033Z,955.59
2023-08-03T09:22:02.973Z,955.38
2023-08-03T09:22:08.582Z,955.52
2023-08-03T09:24:59.962Z,955.43
2023-08-03T09:25:59.945Z,955.51
2023-08-03T09:27:00.002Z,955.43
2023-08-03T09:28:00.189Z,955.49
2023-08-03T09:29:03.378Z,955.56
2023-08-03T09:29:59.951Z,955.65
2023-08-03T09:31:02.468Z,955.45
2023-08-03T09:32:00.275Z,955.59
2023-08-03T09:32:59.924Z,955.52
2023-08-03T09:33:59.892Z,955.49
2023-08-03T09:34:59.932Z,955.58
2023-08-03T09:35:59.878Z,955.58
2023-08-03T09:37:59.853Z,955.20
2023-08-03T09:38:59.841Z,955.72
2023-08-03T09:39:59.799Z,955.72
2023-08-03T09:40:59.799Z,955.71
2023-08-03T09:41:59.785Z,955.71
2023-08-03T09:43:02.178Z,955.73
2023-08-03T09:43:59.765Z,955.70
2023-08-03T09:44:59.773Z,955.74
2023-08-03T09:45:59.759Z,955.62
2023-08-03T09:46:59.755Z,955.85
2023-08-03T09:47:59.829Z,955.87
2023-08-03T09:49:59.715Z,955.78
2023-08-03T09:50:59.710Z,955.80
2023-08-03T09:52:59.687Z,955.77
2023-08-03T09:55:59.659Z,956.18
2023-08-03T09:57:59.673Z,955.87
2023-08-03T09:58:59.708Z,956.08
2023-08-03T09:59:59.721Z,956.11
2023-08-03T10:00:59.653Z,956.15
2023-08-03T10:02:02.505Z,956.22
2023-08-03T10:02:59.637Z,956.11
2023-08-03T10:03:59.659Z,956.30
2023-08-03T10:04:59.579Z,956.10
2023-08-03T10:05:59.579Z,956.07
2023-08-03T10:06:59.578Z,956.03
2023-08-03T10:07:59.539Z,955.88
2023-08-03T10:08:59.539Z,956.06
2023-08-03T10:09:59.558Z,955.97
2023-08-03T10:10:59.497Z,956.06
2023-08-03T10:11:59.481Z,956.27
2023-08-03T10:12:59.476Z,956.17
2023-08-03T10:14:00.240Z,956.13
2023-08-03T10:14:59.450Z,956.28
2023-08-03T10:15:59.499Z,956.12
2023-08-03T10:16:59.457Z,956.09
2023-08-03T10:17:59.410Z,956.15
2023-08-03T10:19:00.379Z,956.16
2023-08-03T10:19:59.398Z,956.24
2023-08-03T10:20:59.472Z,956.19
2023-08-03T10:21:59.384Z,956.27
2023-08-03T10:22:59.385Z,956.31
2023-08-03T10:23:59.388Z,956.21
2023-08-03T10:24:59.418Z,956.08
2023-08-03T10:25:59.342Z,956.21
2023-08-03T10:27:00.950Z,956.28
2023-08-03T10:27:59.331Z,956.28
2023-08-03T10:28:59.302Z,956.08
2023-08-03T10:29:59.306Z,956.02
2023-08-03T10:30:59.295Z,956.41
2023-08-03T10:31:59.262Z,956.06
2023-08-03T10:32:59.271Z,956.19
2023-08-03T10:33:59.302Z,956.37
2023-08-03T10:34:59.240Z,956.15
2023-08-03T10:35:59.230Z,956.19
2023-08-03T10:36:59.339Z,956.21
2023-08-03T10:37:59.248Z,956.12
2023-08-03T10:38:59.252Z,956.21
2023-08-03T10:39:59.199Z,956.34
2023-08-03T10:40:59.174Z,956.15
2023-08-03T10:41:59.176Z,956.28
2023-08-03T10:42:59.177Z,956.23
2023-08-03T10:43:59.146Z,955.98
2023-08-03T10:44:59.133Z,956.18
2023-08-03T10:45:59.192Z,956.10
2023-08-03T10:46:59.256Z,956.27
2023-08-03T10:47:59.325Z,956.36
2023-08-03T10:48:59.155Z,956.26
2023-08-03T10:49:59.136Z,956.36
2023-08-03T10:50:59.120Z,956.34
2023-08-03T10:51:59.062Z,956.36
2023-08-03T10:52:59.085Z,956.41
2023-08-03T10:53:59.035Z,956.38
2023-08-03T10:54:59.027Z,956.51
2023-08-03T10:55:59.014Z,956.51
2023-08-03T10:56:58.999Z,956.26
2023-08-03T10:57:59.015Z,956.43
2023-08-03T10:58:58.995Z,956.55
2023-08-03T10:59:59.000Z,956.45
2023-08-03T11:00:58.980Z,956.51
2023-08-03T11:01:58.988Z,956.67
2023-08-03T11:02:59.084Z,956.53
2023-08-03T11:03:59.096Z,956.48
2023-08-03T11:04:58.906Z,956.72
2023-08-03T11:05:58.914Z,956.55
2023-08-03T11:06:58.898Z,956.56
2023-08-03T11:07:58.934Z,956.57
2023-08-03T11:08:58.880Z,956.61
2023-08-03T11:09:58.867Z,956.55
2023-08-03T11:10:58.985Z,956.71
2023-08-03T11:11:59.114Z,956.55
2023-08-03T11:12:58.803Z,956.52
2023-08-03T11:13:58.859Z,956.65
2023-08-03T11:14:58.834Z,956.63
2023-08-03T11:15:58.863Z,956.68
2023-08-03T11:16:58.776Z,956.61
2023-08-03T11:17:58.809Z,956.60
2023-08-03T11:18:58.761Z,956.85
2023-08-03T11:19:58.798Z,956.58
2023-08-03T11:20:58.823Z,956.94
2023-08-03T11:21:58.732Z,956.70
2023-08-03T11:22:58.723Z,956.62
2023-08-03T11:23:58.712Z,956.50
2023-08-03T11:24:58.684Z,956.57
2023-08-03T11:25:58.724Z,956.68
2023-08-03T11:26:58.708Z,956.84
2023-08-03T11:27:58.663Z,956.73
2023-08-03T11:28:58.656Z,956.70
2023-08-03T11:29:58.638Z,956.63
2023-08-03T11:30:58.624Z,956.67
2023-08-03T11:31:58.621Z,956.55
2023-08-03T11:32:58.666Z,956.40
2023-08-03T11:33:58.624Z,956.56
2023-08-03T11:34:58.611Z,956.63
2023-08-03T11:35:58.587Z,956.54
2023-08-03T11:36:58.556Z,956.56
2023-08-03T11:37:58.594Z,956.58
2023-08-03T11:38:58.534Z,956.67
2023-08-03T11:39:58.521Z,956.60
2023-08-03T11:40:58.568Z,956.57
2023-08-03T11:41:58.533Z,956.58
2023-08-03T11:42:58.489Z,956.55
2023-08-03T11:43:58.538Z,956.53
2023-08-03T11:44:58.461Z,956.57
2023-08-03T11:45:58.529Z,956.53
2023-08-03T11:46:58.505Z,956.58
2023-08-03T11:47:58.468Z,956.69
2023-08-03T11:48:58.436Z,956.64
2023-08-03T11:49:58.509Z,956.44
2023-08-03T11:50:58.396Z,956.42
2023-08-03T11:51:58.395Z,956.50
2023-08-03T11:53:58.373Z,956.60
2023-08-03T11:54:58.369Z,956.47
2023-08-03T11:55:58.358Z,956.46
2023-08-03T11:56:58.372Z,956.54
2023-08-03T11:58:58.349Z,956.59
2023-08-03T11:59:58.308Z,956.48
2023-08-03T12:00:58.443Z,956.50
2023-08-03T12:01:58.358Z,956.45
2023-08-03T12:02:58.406Z,956.63
2023-08-03T12:03:58.337Z,956.69
2023-08-03T12:05:10.752Z,956.60
2023-08-03T12:06:08.119Z,956.56
2023-08-03T12:06:58.291Z,956.43
2023-08-03T12:08:58.360Z,956.71
2023-08-03T12:09:58.175Z,956.66
2023-08-03T12:10:58.220Z,956.65
2023-08-03T12:11:58.163Z,956.93
2023-08-03T12:13:02.386Z,956.53
2023-08-03T12:13:58.144Z,956.65
2023-08-03T12:14:58.145Z,956.65
2023-08-03T12:15:58.125Z,956.60
2023-08-03T12:16:59.519Z,956.75
2023-08-03T12:17:58.185Z,956.83
2023-08-03T12:18:58.130Z,956.82
2023-08-03T12:19:58.071Z,956.58
2023-08-03T12:20:58.616Z,956.60
2023-08-03T12:21:58.082Z,956.62
2023-08-03T12:23:02.205Z,956.53
2023-08-03T12:23:58.048Z,956.70
2023-08-03T12:24:58.054Z,956.56
2023-08-03T12:25:58.174Z,956.46
2023-08-03T12:27:04.294Z,956.69
2023-08-03T12:27:57.993Z,956.63
2023-08-03T12:29:08.043Z,956.67
2023-08-03T12:29:57.953Z,956.73
2023-08-03T12:30:58.166Z,956.61
2023-08-03T12:31:57.996Z,956.74
2023-08-03T12:32:57.989Z,957.02
2023-08-03T12:33:57.968Z,956.62
2023-08-03T12:34:57.898Z,956.93
2023-08-03T12:35:57.920Z,956.64
2023-08-03T12:36:57.955Z,956.75
2023-08-03T12:37:58.838Z,956.64
2023-08-03T12:38:57.867Z,956.76
2023-08-03T12:39:57.863Z,956.72
2023-08-03T12:40:57.839Z,956.52
2023-08-03T12:41:57.849Z,957.00
2023-08-03T12:42:57.833Z,956.94
2023-08-03T12:43:57.799Z,956.91
2023-08-03T12:44:57.790Z,956.76
2023-08-03T12:45:57.814Z,956.81
2023-08-03T12:46:57.765Z,956.85
2023-08-03T12:47:57.771Z,956.91
2023-08-03T12:48:57.787Z,956.92
2023-08-03T12:49:57.765Z,956.89
2023-08-03T12:50:57.704Z,957.02
2023-08-03T12:51:57.717Z,956.89